LEVX/VGO METAR and TAF weather

Enter ICAO airport designator
Station Type Date Time Source
LEVX METAR 2021/10/22 19:00 UTC NOAA

LEVX 221900Z 02005KT 350V050 CAVOK 14/10 Q1023 NOSIG


Station Type Date Time Source
LEVX Decoded METAR 2021/10/22 19:00 UTC NOAA

Vigo / Peinador, Spain (LEVX) 42-13N 008-38W 255M
Oct 22, 2021 - 03:00 PM EDT / 2021.10.22 1900 UTC
Wind: from the NNE (020 degrees) at 6 MPH (5 KT) (direction variable):0
Visibility: greater than 7 mile(s):0
Temperature: 57 F (14 C)
Dew Point: 50 F (10 C)
Relative Humidity: 76%
Pressure (altimeter): 30.21 in. Hg (1023 hPa)
ob: LEVX 221900Z 02005KT 350V050 CAVOK 14/10 Q1023 NOSIG
cycle: 19

Station Type Date Time Source
LEVX TAF 2021/10/22 18:27 UTC NOAA

TAF LEVX 221700Z 2218/2318 01009KT 9999 FEW030 TX17/2313Z TN08/2307Z

Example: see airport list